sensor_id;sensor_type;location;lat;lon;timestamp;pressure;altitude;pressure_sealevel;temperature;humidity
45941;BME280;31858;46.008;8.978;2023-04-25T00:10:02;93677.19;;;10.43;50.11
45941;BME280;31858;46.008;8.978;2023-04-25T00:20:05;93680.47;;;10.62;46.36
45941;BME280;31858;46.008;8.978;2023-04-25T00:30:12;93682.09;;;10.49;49.31
45941;BME280;31858;46.008;8.978;2023-04-25T00:40:14;93670.41;;;10.35;50.35
45941;BME280;31858;46.008;8.978;2023-04-25T00:50:17;93659.75;;;10.35;48.88
45941;BME280;31858;46.008;8.978;2023-04-25T01:00:19;93661.75;;;10.21;51.17
45941;BME280;31858;46.008;8.978;2023-04-25T01:10:23;93656.34;;;10.35;49.10
45941;BME280;31858;46.008;8.978;2023-04-25T01:20:26;93663.91;;;10.40;51.74
45941;BME280;31858;46.008;8.978;2023-04-25T01:30:29;93666.63;;;10.33;52.67
45941;BME280;31858;46.008;8.978;2023-04-25T01:40:31;93663.63;;;10.27;51.95
45941;BME280;31858;46.008;8.978;2023-04-25T01:50:37;93661.00;;;10.20;54.60
45941;BME280;31858;46.008;8.978;2023-04-25T02:00:38;93661.34;;;10.22;52.16
45941;BME280;31858;46.008;8.978;2023-04-25T02:10:42;93642.72;;;10.22;52.84
45941;BME280;31858;46.008;8.978;2023-04-25T02:20:44;93626.75;;;10.15;55.59
45941;BME280;31858;46.008;8.978;2023-04-25T02:30:47;93649.28;;;10.00;50.06
45941;BME280;31858;46.008;8.978;2023-04-25T02:40:49;93649.88;;;10.32;54.85
45941;BME280;31858;46.008;8.978;2023-04-25T02:50:52;93646.84;;;10.30;55.49
45941;BME280;31858;46.008;8.978;2023-04-25T03:00:53;93624.88;;;10.12;57.28
45941;BME280;31858;46.008;8.978;2023-04-25T03:10:57;93618.06;;;10.07;53.04
45941;BME280;31858;46.008;8.978;2023-04-25T03:20:58;93623.50;;;9.86;56.47
45941;BME280;31858;46.008;8.978;2023-04-25T03:31:01;93621.00;;;9.47;61.65
45941;BME280;31858;46.008;8.978;2023-04-25T03:41:03;93621.41;;;9.38;60.42
45941;BME280;31858;46.008;8.978;2023-04-25T03:51:06;93623.00;;;9.18;58.49
45941;BME280;31858;46.008;8.978;2023-04-25T04:01:07;93616.63;;;8.98;60.83
45941;BME280;31858;46.008;8.978;2023-04-25T04:11:11;93613.19;;;8.97;59.96
45941;BME280;31858;46.008;8.978;2023-04-25T04:21:12;93609.78;;;8.93;61.96
45941;BME280;31858;46.008;8.978;2023-04-25T04:31:16;93616.25;;;8.92;62.66
45941;BME280;31858;46.008;8.978;2023-04-25T04:41:19;93632.56;;;8.73;69.59
45941;BME280;31858;46.008;8.978;2023-04-25T04:51:22;93636.75;;;8.81;72.10
45941;BME280;31858;46.008;8.978;2023-04-25T05:01:24;93638.25;;;8.78;68.35
45941;BME280;31858;46.008;8.978;2023-04-25T05:11:27;93636.75;;;8.81;72.72
45941;BME280;31858;46.008;8.978;2023-04-25T05:21:29;93648.13;;;8.71;68.26
45941;BME280;31858;46.008;8.978;2023-04-25T05:31:34;93642.06;;;8.74;75.44
45941;BME280;31858;46.008;8.978;2023-04-25T05:41:35;93645.09;;;8.62;76.49
45941;BME280;31858;46.008;8.978;2023-04-25T05:51:38;93642.81;;;8.60;73.01
45941;BME280;31858;46.008;8.978;2023-04-25T06:01:40;93657.63;;;8.65;73.82
45941;BME280;31858;46.008;8.978;2023-04-25T06:11:43;93666.34;;;8.83;80.03
45941;BME280;31858;46.008;8.978;2023-04-25T06:21:45;93642.44;;;8.69;80.21
45941;BME280;31858;46.008;8.978;2023-04-25T06:31:48;93651.94;;;8.63;82.52
45941;BME280;31858;46.008;8.978;2023-04-25T06:41:50;93654.19;;;8.78;84.49
45941;BME280;31858;46.008;8.978;2023-04-25T06:51:53;93661.78;;;9.05;92.51
45941;BME280;31858;46.008;8.978;2023-04-25T07:01:54;93646.53;;;9.20;91.25
45941;BME280;31858;46.008;8.978;2023-04-25T07:11:57;93651.00;;;9.55;100.00
45941;BME280;31858;46.008;8.978;2023-04-25T07:21:59;93660.06;;;9.64;97.39
45941;BME280;31858;46.008;8.978;2023-04-25T07:32:02;93657.09;;;9.48;100.00
45941;BME280;31858;46.008;8.978;2023-04-25T07:42:04;93652.41;;;9.80;92.66
45941;BME280;31858;46.008;8.978;2023-04-25T07:52:09;93631.13;;;9.80;97.20
45941;BME280;31858;46.008;8.978;2023-04-25T08:02:11;93659.34;;;9.53;94.91
45941;BME280;31858;46.008;8.978;2023-04-25T08:12:14;93653.25;;;9.63;84.40
45941;BME280;31858;46.008;8.978;2023-04-25T08:22:15;93654.38;;;9.66;100.00
45941;BME280;31858;46.008;8.978;2023-04-25T08:32:18;93648.56;;;9.92;100.00
45941;BME280;31858;46.008;8.978;2023-04-25T08:42:21;93659.78;;;10.32;100.00
45941;BME280;31858;46.008;8.978;2023-04-25T08:52:27;93659.47;;;10.71;100.00
45941;BME280;31858;46.008;8.978;2023-04-25T09:02:32;93652.78;;;11.00;100.00
45941;BME280;31858;46.008;8.978;2023-04-25T09:12:35;93653.47;;;11.08;100.00
45941;BME280;31858;46.008;8.978;2023-04-25T09:22:38;93661.09;;;11.06;100.00
45941;BME280;31858;46.008;8.978;2023-04-25T09:32:42;93671.41;;;11.45;100.00
45941;BME280;31858;46.008;8.978;2023-04-25T09:42:44;93667.53;;;11.84;95.37
45941;BME280;31858;46.008;8.978;2023-04-25T09:53:02;93672.94;;;12.11;94.92
45941;BME280;31858;46.008;8.978;2023-04-25T10:03:05;93673.53;;;12.52;100.00
45941;BME280;31858;46.008;8.978;2023-04-25T10:13:09;93666.50;;;13.08;86.99
45941;BME280;31858;46.008;8.978;2023-04-25T10:23:13;93664.16;;;13.57;63.81
45941;BME280;31858;46.008;8.978;2023-04-25T10:33:17;93673.72;;;13.98;53.93
45941;BME280;31858;46.008;8.978;2023-04-25T10:43:39;93672.47;;;14.38;44.00
45941;BME280;31858;46.008;8.978;2023-04-25T10:53:43;93672.34;;;14.10;50.23
45941;BME280;31858;46.008;8.978;2023-04-25T11:03:45;93644.56;;;14.72;43.58
45941;BME280;31858;46.008;8.978;2023-04-25T11:13:49;93655.72;;;14.34;46.79
45941;BME280;31858;46.008;8.978;2023-04-25T11:23:51;93694.50;;;13.27;50.87
45941;BME280;31858;46.008;8.978;2023-04-25T11:33:56;93694.88;;;13.02;54.39
45941;BME280;31858;46.008;8.978;2023-04-25T11:43:58;93703.16;;;13.58;54.45
45941;BME280;31858;46.008;8.978;2023-04-25T11:54:01;93693.50;;;14.40;49.92
45941;BME280;31858;46.008;8.978;2023-04-25T12:04:13;93683.47;;;14.96;54.30
45941;BME280;31858;46.008;8.978;2023-04-25T12:14:23;93681.41;;;15.49;43.78
45941;BME280;31858;46.008;8.978;2023-04-25T12:24:25;93671.19;;;16.02;40.55
45941;BME280;31858;46.008;8.978;2023-04-25T12:34:28;93663.91;;;16.15;40.09
45941;BME280;31858;46.008;8.978;2023-04-25T12:44:32;93657.34;;;16.16;37.52
45941;BME280;31858;46.008;8.978;2023-04-25T12:54:35;93653.31;;;16.50;37.36
45941;BME280;31858;46.008;8.978;2023-04-25T13:04:36;93645.69;;;16.86;36.37
45941;BME280;31858;46.008;8.978;2023-04-25T13:14:39;93654.66;;;17.18;34.78
45941;BME280;31858;46.008;8.978;2023-04-25T13:24:41;93651.03;;;17.46;34.26
45941;BME280;31858;46.008;8.978;2023-04-25T13:34:44;93643.66;;;17.59;36.43
45941;BME280;31858;46.008;8.978;2023-04-25T13:44:45;93639.63;;;17.99;36.56
45941;BME280;31858;46.008;8.978;2023-04-25T13:54:48;93642.84;;;18.46;36.97
45941;BME280;31858;46.008;8.978;2023-04-25T14:04:50;93642.28;;;18.82;34.35
45941;BME280;31858;46.008;8.978;2023-04-25T14:14:53;93638.09;;;18.90;31.63
45941;BME280;31858;46.008;8.978;2023-04-25T14:24:54;93634.84;;;19.14;31.87
45941;BME280;31858;46.008;8.978;2023-04-25T14:34:57;93653.34;;;19.34;30.37
45941;BME280;31858;46.008;8.978;2023-04-25T14:44:59;93649.91;;;19.51;29.77
45941;BME280;31858;46.008;8.978;2023-04-25T14:55:02;93648.88;;;19.67;28.63
45941;BME280;31858;46.008;8.978;2023-04-25T15:05:05;93663.41;;;19.51;26.49
45941;BME280;31858;46.008;8.978;2023-04-25T15:15:10;93676.16;;;19.42;29.14
45941;BME280;31858;46.008;8.978;2023-04-25T15:25:12;93676.91;;;19.42;29.80
45941;BME280;31858;46.008;8.978;2023-04-25T15:35:15;93699.25;;;19.25;25.41
45941;BME280;31858;46.008;8.978;2023-04-25T15:45:18;93696.31;;;19.01;25.40
45941;BME280;31858;46.008;8.978;2023-04-25T15:55:21;93732.78;;;18.74;23.83
45941;BME280;31858;46.008;8.978;2023-04-25T16:05:25;93719.19;;;18.56;24.82
45941;BME280;31858;46.008;8.978;2023-04-25T16:15:29;93720.13;;;18.62;25.24
45941;BME280;31858;46.008;8.978;2023-04-25T16:25:31;93734.56;;;18.46;26.78
45941;BME280;31858;46.008;8.978;2023-04-25T16:35:34;93751.88;;;18.36;25.54
45941;BME280;31858;46.008;8.978;2023-04-25T16:45:36;93749.94;;;17.93;25.71
45941;BME280;31858;46.008;8.978;2023-04-25T16:55:39;93762.38;;;17.78;27.08
45941;BME280;31858;46.008;8.978;2023-04-25T17:05:40;93771.09;;;17.82;25.96
45941;BME280;31858;46.008;8.978;2023-04-25T17:15:43;93783.94;;;17.52;27.03
45941;BME280;31858;46.008;8.978;2023-04-25T17:25:45;93785.78;;;17.30;27.38
45941;BME280;31858;46.008;8.978;2023-04-25T17:35:48;93792.16;;;17.11;26.34
45941;BME280;31858;46.008;8.978;2023-04-25T17:45:50;93807.09;;;16.74;24.10
45941;BME280;31858;46.008;8.978;2023-04-25T17:55:53;93832.41;;;16.02;23.82
45941;BME280;31858;46.008;8.978;2023-04-25T18:05:55;93857.91;;;15.29;24.89
45941;BME280;31858;46.008;8.978;2023-04-25T18:15:58;93892.41;;;14.71;25.42
45941;BME280;31858;46.008;8.978;2023-04-25T18:26:00;93900.09;;;14.49;25.46
45941;BME280;31858;46.008;8.978;2023-04-25T18:36:05;93927.47;;;14.17;27.02
45941;BME280;31858;46.008;8.978;2023-04-25T18:46:07;93948.94;;;13.90;26.29
45941;BME280;31858;46.008;8.978;2023-04-25T18:56:10;93973.66;;;13.75;26.27
45941;BME280;31858;46.008;8.978;2023-04-25T19:06:12;93999.19;;;13.52;27.07
45941;BME280;31858;46.008;8.978;2023-04-25T19:16:17;94000.88;;;13.39;27.72
45941;BME280;31858;46.008;8.978;2023-04-25T19:26:21;94014.31;;;13.35;29.11
45941;BME280;31858;46.008;8.978;2023-04-25T19:36:24;94029.63;;;13.31;29.02
45941;BME280;31858;46.008;8.978;2023-04-25T19:46:27;94048.25;;;13.04;29.75
45941;BME280;31858;46.008;8.978;2023-04-25T19:56:30;94055.47;;;12.70;31.94
45941;BME280;31858;46.008;8.978;2023-04-25T20:06:33;94065.25;;;12.43;33.60
45941;BME280;31858;46.008;8.978;2023-04-25T20:16:36;94070.66;;;12.32;30.95
45941;BME280;31858;46.008;8.978;2023-04-25T20:26:37;94077.06;;;12.45;31.24
45941;BME280;31858;46.008;8.978;2023-04-25T20:36:40;94078.38;;;12.23;32.88
45941;BME280;31858;46.008;8.978;2023-04-25T20:46:42;94083.38;;;12.14;31.88
45941;BME280;31858;46.008;8.978;2023-04-25T20:56:45;94070.00;;;12.17;30.90
45941;BME280;31858;46.008;8.978;2023-04-25T21:06:46;94069.28;;;12.13;30.70
45941;BME280;31858;46.008;8.978;2023-04-25T21:16:49;94032.28;;;12.12;30.38
45941;BME280;31858;46.008;8.978;2023-04-25T21:26:51;94002.56;;;12.06;30.33
45941;BME280;31858;46.008;8.978;2023-04-25T21:36:54;94040.00;;;11.99;31.07
45941;BME280;31858;46.008;8.978;2023-04-25T21:46:55;94063.31;;;11.88;31.36
45941;BME280;31858;46.008;8.978;2023-04-25T21:56:58;94060.63;;;11.95;30.22
45941;BME280;31858;46.008;8.978;2023-04-25T22:07:00;94068.31;;;11.75;31.11
45941;BME280;31858;46.008;8.978;2023-04-25T22:17:03;94086.69;;;11.66;32.05
45941;BME280;31858;46.008;8.978;2023-04-25T22:27:05;94093.16;;;11.68;32.46
45941;BME280;31858;46.008;8.978;2023-04-25T22:37:08;94080.69;;;11.40;34.28
45941;BME280;31858;46.008;8.978;2023-04-25T22:47:10;94092.50;;;11.43;32.25
45941;BME280;31858;46.008;8.978;2023-04-25T22:57:13;94097.78;;;11.54;31.98
45941;BME280;31858;46.008;8.978;2023-04-25T23:07:15;94099.41;;;11.23;33.90
45941;BME280;31858;46.008;8.978;2023-04-25T23:17:18;94096.38;;;11.21;33.62
45941;BME280;31858;46.008;8.978;2023-04-25T23:27:20;94094.09;;;11.16;34.63
45941;BME280;31858;46.008;8.978;2023-04-25T23:37:23;94102.50;;;11.07;33.19
45941;BME280;31858;46.008;8.978;2023-04-25T23:47:25;94098.69;;;11.04;35.29
45941;BME280;31858;46.008;8.978;2023-04-25T23:57:28;94099.88;;;10.82;35.97
